sensor_id;sensor_type;location;lat;lon;timestamp;pressure;altitude;pressure_sealevel;temperature
35582;BMP180;21687;48.900;9.188;2023-01-31T00:00:11;99252.00;;;2.00
35582;BMP180;21687;48.900;9.188;2023-01-31T00:02:38;99250.00;;;2.00
35582;BMP180;21687;48.900;9.188;2023-01-31T00:05:04;99245.00;;;2.00
35582;BMP180;21687;48.900;9.188;2023-01-31T00:07:30;99249.00;;;2.00
35582;BMP180;21687;48.900;9.188;2023-01-31T00:09:57;99242.00;;;2.00
35582;BMP180;21687;48.900;9.188;2023-01-31T00:12:23;99242.00;;;2.00
35582;BMP180;21687;48.900;9.188;2023-01-31T00:14:49;99242.00;;;2.00
35582;BMP180;21687;48.900;9.188;2023-01-31T00:17:15;99240.00;;;2.00
35582;BMP180;21687;48.900;9.188;2023-01-31T00:19:41;99239.00;;;2.10
35582;BMP180;21687;48.900;9.188;2023-01-31T00:22:08;99237.00;;;2.10
35582;BMP180;21687;48.900;9.188;2023-01-31T00:24:34;99238.00;;;2.10
35582;BMP180;21687;48.900;9.188;2023-01-31T00:27:00;99239.00;;;2.10
35582;BMP180;21687;48.900;9.188;2023-01-31T00:29:26;99228.00;;;2.10
35582;BMP180;21687;48.900;9.188;2023-01-31T00:31:52;99236.00;;;2.10
35582;BMP180;21687;48.900;9.188;2023-01-31T00:34:19;99236.00;;;2.10
35582;BMP180;21687;48.900;9.188;2023-01-31T00:36:45;99231.00;;;2.10
35582;BMP180;21687;48.900;9.188;2023-01-31T00:39:11;99240.00;;;2.10
35582;BMP180;21687;48.900;9.188;2023-01-31T00:41:38;99246.00;;;2.10
35582;BMP180;21687;48.900;9.188;2023-01-31T00:44:05;99243.00;;;2.10
35582;BMP180;21687;48.900;9.188;2023-01-31T00:46:31;99229.00;;;2.10
35582;BMP180;21687;48.900;9.188;2023-01-31T00:48:58;99238.00;;;2.10
35582;BMP180;21687;48.900;9.188;2023-01-31T00:51:25;99243.00;;;2.10
35582;BMP180;21687;48.900;9.188;2023-01-31T00:53:51;99248.00;;;2.00
35582;BMP180;21687;48.900;9.188;2023-01-31T00:56:20;99252.00;;;1.90
35582;BMP180;21687;48.900;9.188;2023-01-31T00:58:51;99253.00;;;2.00
35582;BMP180;21687;48.900;9.188;2023-01-31T01:01:21;99248.00;;;1.90
35582;BMP180;21687;48.900;9.188;2023-01-31T01:03:48;99247.00;;;1.90
35582;BMP180;21687;48.900;9.188;2023-01-31T01:06:15;99220.00;;;1.90
35582;BMP180;21687;48.900;9.188;2023-01-31T01:08:42;99251.00;;;1.80
35582;BMP180;21687;48.900;9.188;2023-01-31T01:11:17;99253.00;;;1.70
35582;BMP180;21687;48.900;9.188;2023-01-31T01:13:44;99258.00;;;1.70
35582;BMP180;21687;48.900;9.188;2023-01-31T01:16:13;99258.00;;;1.80
35582;BMP180;21687;48.900;9.188;2023-01-31T01:18:40;99247.00;;;1.80
35582;BMP180;21687;48.900;9.188;2023-01-31T01:21:12;99252.00;;;1.80
35582;BMP180;21687;48.900;9.188;2023-01-31T01:23:40;99237.00;;;1.70
35582;BMP180;21687;48.900;9.188;2023-01-31T01:26:13;99251.00;;;1.60
35582;BMP180;21687;48.900;9.188;2023-01-31T01:28:40;99254.00;;;1.50
35582;BMP180;21687;48.900;9.188;2023-01-31T01:31:07;99251.00;;;1.40
35582;BMP180;21687;48.900;9.188;2023-01-31T01:33:35;99249.00;;;1.40
35582;BMP180;21687;48.900;9.188;2023-01-31T01:36:06;99251.00;;;1.30
35582;BMP180;21687;48.900;9.188;2023-01-31T01:38:34;99270.00;;;1.30
35582;BMP180;21687;48.900;9.188;2023-01-31T01:41:01;99260.00;;;1.20
35582;BMP180;21687;48.900;9.188;2023-01-31T01:43:51;99272.00;;;1.00
35582;BMP180;21687;48.900;9.188;2023-01-31T01:46:26;99271.00;;;1.00
35582;BMP180;21687;48.900;9.188;2023-01-31T01:49:00;99266.00;;;1.00
35582;BMP180;21687;48.900;9.188;2023-01-31T01:51:29;99267.00;;;1.10
35582;BMP180;21687;48.900;9.188;2023-01-31T01:54:04;99264.00;;;1.10
35582;BMP180;21687;48.900;9.188;2023-01-31T01:56:36;99270.00;;;1.20
35582;BMP180;21687;48.900;9.188;2023-01-31T01:59:17;99267.00;;;1.30
35582;BMP180;21687;48.900;9.188;2023-01-31T02:01:47;99288.00;;;1.20
35582;BMP180;21687;48.900;9.188;2023-01-31T02:04:23;99282.00;;;1.20
35582;BMP180;21687;48.900;9.188;2023-01-31T02:06:51;99272.00;;;1.30
35582;BMP180;21687;48.900;9.188;2023-01-31T02:12:06;99285.00;;;1.40
35582;BMP180;21687;48.900;9.188;2023-01-31T02:14:33;99285.00;;;1.50
35582;BMP180;21687;48.900;9.188;2023-01-31T02:17:00;99286.00;;;1.50
35582;BMP180;21687;48.900;9.188;2023-01-31T02:28:00;99295.00;;;1.70
35582;BMP180;21687;48.900;9.188;2023-01-31T02:33:48;99296.00;;;1.60
35582;BMP180;21687;48.900;9.188;2023-01-31T02:36:37;99310.00;;;1.60
35582;BMP180;21687;48.900;9.188;2023-01-31T02:39:27;99306.00;;;1.70
35582;BMP180;21687;48.900;9.188;2023-01-31T02:44:42;99306.00;;;1.70
35582;BMP180;21687;48.900;9.188;2023-01-31T02:47:32;99292.00;;;1.70
35582;BMP180;21687;48.900;9.188;2023-01-31T02:53:03;99315.00;;;1.70
35582;BMP180;21687;48.900;9.188;2023-01-31T02:55:38;99316.00;;;1.70
35582;BMP180;21687;48.900;9.188;2023-01-31T02:58:27;99312.00;;;1.80
35582;BMP180;21687;48.900;9.188;2023-01-31T03:00:57;99306.00;;;1.70
35582;BMP180;21687;48.900;9.188;2023-01-31T03:03:27;99293.00;;;1.80
35582;BMP180;21687;48.900;9.188;2023-01-31T03:09:02;99308.00;;;1.80
35582;BMP180;21687;48.900;9.188;2023-01-31T03:11:39;99312.00;;;1.80
35582;BMP180;21687;48.900;9.188;2023-01-31T03:16:53;99309.00;;;1.80
35582;BMP180;21687;48.900;9.188;2023-01-31T03:22:55;99306.00;;;1.80
35582;BMP180;21687;48.900;9.188;2023-01-31T03:25:26;99312.00;;;1.80
35582;BMP180;21687;48.900;9.188;2023-01-31T03:28:00;99306.00;;;1.80
35582;BMP180;21687;48.900;9.188;2023-01-31T03:33:31;99307.00;;;1.80
35582;BMP180;21687;48.900;9.188;2023-01-31T03:38:36;99319.00;;;1.80
35582;BMP180;21687;48.900;9.188;2023-01-31T03:41:12;99320.00;;;1.70
35582;BMP180;21687;48.900;9.188;2023-01-31T03:46:29;99331.00;;;1.70
35582;BMP180;21687;48.900;9.188;2023-01-31T03:48:59;99312.00;;;1.70
35582;BMP180;21687;48.900;9.188;2023-01-31T03:51:30;99322.00;;;1.70
35582;BMP180;21687;48.900;9.188;2023-01-31T03:54:04;99309.00;;;1.70
35582;BMP180;21687;48.900;9.188;2023-01-31T03:56:44;99327.00;;;1.70
35582;BMP180;21687;48.900;9.188;2023-01-31T03:59:16;99320.00;;;1.70
35582;BMP180;21687;48.900;9.188;2023-01-31T04:01:46;99338.00;;;1.70
35582;BMP180;21687;48.900;9.188;2023-01-31T04:04:31;99342.00;;;1.70
35582;BMP180;21687;48.900;9.188;2023-01-31T04:07:02;99334.00;;;1.70
35582;BMP180;21687;48.900;9.188;2023-01-31T04:09:28;99317.00;;;1.70
35582;BMP180;21687;48.900;9.188;2023-01-31T04:11:59;99340.00;;;1.70
35582;BMP180;21687;48.900;9.188;2023-01-31T04:14:26;99339.00;;;1.60
35582;BMP180;21687;48.900;9.188;2023-01-31T04:16:53;99345.00;;;1.60
35582;BMP180;21687;48.900;9.188;2023-01-31T04:19:19;99340.00;;;1.40
35582;BMP180;21687;48.900;9.188;2023-01-31T04:21:45;99342.00;;;1.30
35582;BMP180;21687;48.900;9.188;2023-01-31T04:24:11;99338.00;;;1.20
35582;BMP180;21687;48.900;9.188;2023-01-31T04:26:38;99346.00;;;1.10
35582;BMP180;21687;48.900;9.188;2023-01-31T04:29:04;99344.00;;;1.00
35582;BMP180;21687;48.900;9.188;2023-01-31T04:31:30;99348.00;;;0.90
35582;BMP180;21687;48.900;9.188;2023-01-31T04:33:57;99349.00;;;0.90
35582;BMP180;21687;48.900;9.188;2023-01-31T04:36:25;99340.00;;;0.80
35582;BMP180;21687;48.900;9.188;2023-01-31T04:38:51;99349.00;;;0.60
35582;BMP180;21687;48.900;9.188;2023-01-31T04:41:18;99354.00;;;0.60
35582;BMP180;21687;48.900;9.188;2023-01-31T04:43:44;99350.00;;;0.60
35582;BMP180;21687;48.900;9.188;2023-01-31T04:46:10;99356.00;;;0.40
35582;BMP180;21687;48.900;9.188;2023-01-31T04:48:36;99341.00;;;0.40
35582;BMP180;21687;48.900;9.188;2023-01-31T04:51:04;99344.00;;;0.40
35582;BMP180;21687;48.900;9.188;2023-01-31T04:53:30;99333.00;;;0.40
35582;BMP180;21687;48.900;9.188;2023-01-31T04:55:56;99337.00;;;0.40
35582;BMP180;21687;48.900;9.188;2023-01-31T04:58:23;99326.00;;;0.30
35582;BMP180;21687;48.900;9.188;2023-01-31T05:00:49;99330.00;;;0.20
35582;BMP180;21687;48.900;9.188;2023-01-31T05:03:16;99347.00;;;0.20
35582;BMP180;21687;48.900;9.188;2023-01-31T05:05:42;99344.00;;;0.20
35582;BMP180;21687;48.900;9.188;2023-01-31T05:08:08;99345.00;;;0.20
35582;BMP180;21687;48.900;9.188;2023-01-31T05:10:34;99334.00;;;0.30
35582;BMP180;21687;48.900;9.188;2023-01-31T05:13:01;99334.00;;;0.20
35582;BMP180;21687;48.900;9.188;2023-01-31T05:15:27;99327.00;;;0.20
35582;BMP180;21687;48.900;9.188;2023-01-31T05:17:54;99334.00;;;0.20
35582;BMP180;21687;48.900;9.188;2023-01-31T05:20:29;99336.00;;;0.10
35582;BMP180;21687;48.900;9.188;2023-01-31T05:22:56;99346.00;;;0.00
35582;BMP180;21687;48.900;9.188;2023-01-31T05:25:24;99349.00;;;0.20
35582;BMP180;21687;48.900;9.188;2023-01-31T05:27:51;99347.00;;;0.10
35582;BMP180;21687;48.900;9.188;2023-01-31T05:30:18;99341.00;;;0.10
35582;BMP180;21687;48.900;9.188;2023-01-31T05:32:47;99339.00;;;0.10
35582;BMP180;21687;48.900;9.188;2023-01-31T05:35:15;99331.00;;;0.00
35582;BMP180;21687;48.900;9.188;2023-01-31T05:37:42;99344.00;;;0.00
35582;BMP180;21687;48.900;9.188;2023-01-31T05:40:14;99342.00;;;0.00
35582;BMP180;21687;48.900;9.188;2023-01-31T05:42:40;99339.00;;;0.00
35582;BMP180;21687;48.900;9.188;2023-01-31T05:45:10;99334.00;;;0.00
35582;BMP180;21687;48.900;9.188;2023-01-31T05:47:36;99340.00;;;0.00
35582;BMP180;21687;48.900;9.188;2023-01-31T05:50:03;99336.00;;;-0.20
35582;BMP180;21687;48.900;9.188;2023-01-31T05:52:29;99334.00;;;-0.20
35582;BMP180;21687;48.900;9.188;2023-01-31T05:54:56;99352.00;;;-0.30
35582;BMP180;21687;48.900;9.188;2023-01-31T05:57:22;99343.00;;;-0.20
35582;BMP180;21687;48.900;9.188;2023-01-31T05:59:48;99345.00;;;-0.40
35582;BMP180;21687;48.900;9.188;2023-01-31T06:02:14;99344.00;;;-0.40
35582;BMP180;21687;48.900;9.188;2023-01-31T06:04:41;99337.00;;;-0.40
35582;BMP180;21687;48.900;9.188;2023-01-31T06:07:07;99313.00;;;-0.40
35582;BMP180;21687;48.900;9.188;2023-01-31T06:09:33;99348.00;;;-0.60
35582;BMP180;21687;48.900;9.188;2023-01-31T06:11:59;99343.00;;;-0.70
35582;BMP180;21687;48.900;9.188;2023-01-31T06:14:26;99336.00;;;-0.60
35582;BMP180;21687;48.900;9.188;2023-01-31T06:16:52;99345.00;;;-0.70
35582;BMP180;21687;48.900;9.188;2023-01-31T06:19:18;99334.00;;;-0.80
35582;BMP180;21687;48.900;9.188;2023-01-31T06:21:46;99338.00;;;-0.90
35582;BMP180;21687;48.900;9.188;2023-01-31T06:24:12;99344.00;;;-0.90
35582;BMP180;21687;48.900;9.188;2023-01-31T06:26:38;99358.00;;;-1.00
35582;BMP180;21687;48.900;9.188;2023-01-31T06:29:05;99348.00;;;-0.90
35582;BMP180;21687;48.900;9.188;2023-01-31T06:31:31;99344.00;;;-1.00
35582;BMP180;21687;48.900;9.188;2023-01-31T06:33:57;99360.00;;;-1.10
35582;BMP180;21687;48.900;9.188;2023-01-31T06:36:23;99355.00;;;-1.10
35582;BMP180;21687;48.900;9.188;2023-01-31T06:38:51;99363.00;;;-1.20
35582;BMP180;21687;48.900;9.188;2023-01-31T06:41:19;99358.00;;;-1.30
35582;BMP180;21687;48.900;9.188;2023-01-31T06:43:45;99365.00;;;-1.20
35582;BMP180;21687;48.900;9.188;2023-01-31T06:46:11;99361.00;;;-1.10
35582;BMP180;21687;48.900;9.188;2023-01-31T06:48:37;99367.00;;;-1.20
35582;BMP180;21687;48.900;9.188;2023-01-31T06:51:04;99365.00;;;-1.20
35582;BMP180;21687;48.900;9.188;2023-01-31T06:53:30;99361.00;;;-1.30
35582;BMP180;21687;48.900;9.188;2023-01-31T06:55:56;99350.00;;;-1.20
35582;BMP180;21687;48.900;9.188;2023-01-31T06:58:23;99352.00;;;-1.20
35582;BMP180;21687;48.900;9.188;2023-01-31T07:00:49;99357.00;;;-1.20
35582;BMP180;21687;48.900;9.188;2023-01-31T07:03:15;99353.00;;;-1.20
35582;BMP180;21687;48.900;9.188;2023-01-31T07:05:41;99360.00;;;-1.10
35582;BMP180;21687;48.900;9.188;2023-01-31T07:08:09;99354.00;;;-1.10
35582;BMP180;21687;48.900;9.188;2023-01-31T07:10:36;99344.00;;;-1.20
35582;BMP180;21687;48.900;9.188;2023-01-31T07:13:02;99350.00;;;-1.00
35582;BMP180;21687;48.900;9.188;2023-01-31T07:15:28;99343.00;;;-0.90
35582;BMP180;21687;48.900;9.188;2023-01-31T07:18:01;99352.00;;;-1.00
35582;BMP180;21687;48.900;9.188;2023-01-31T07:20:27;99361.00;;;-0.90
35582;BMP180;21687;48.900;9.188;2023-01-31T07:22:57;99353.00;;;-0.90
35582;BMP180;21687;48.900;9.188;2023-01-31T07:25:25;99336.00;;;-0.90
35582;BMP180;21687;48.900;9.188;2023-01-31T07:27:51;99367.00;;;-0.80
35582;BMP180;21687;48.900;9.188;2023-01-31T07:30:17;99372.00;;;-0.70
35582;BMP180;21687;48.900;9.188;2023-01-31T07:32:44;99362.00;;;-0.60
35582;BMP180;21687;48.900;9.188;2023-01-31T07:35:10;99362.00;;;-0.40
35582;BMP180;21687;48.900;9.188;2023-01-31T07:37:37;99376.00;;;-0.30
35582;BMP180;21687;48.900;9.188;2023-01-31T07:40:05;99379.00;;;-0.30
35582;BMP180;21687;48.900;9.188;2023-01-31T07:42:31;99377.00;;;-0.30
35582;BMP180;21687;48.900;9.188;2023-01-31T07:44:57;99382.00;;;-0.20
35582;BMP180;21687;48.900;9.188;2023-01-31T07:47:23;99380.00;;;-0.20
35582;BMP180;21687;48.900;9.188;2023-01-31T07:49:50;99390.00;;;-0.20
35582;BMP180;21687;48.900;9.188;2023-01-31T07:52:16;99395.00;;;-0.10
35582;BMP180;21687;48.900;9.188;2023-01-31T07:54:42;99384.00;;;-0.10
35582;BMP180;21687;48.900;9.188;2023-01-31T07:57:08;99389.00;;;0.00
35582;BMP180;21687;48.900;9.188;2023-01-31T07:59:35;99394.00;;;0.00
35582;BMP180;21687;48.900;9.188;2023-01-31T08:02:01;99394.00;;;-0.10
35582;BMP180;21687;48.900;9.188;2023-01-31T08:04:46;99400.00;;;0.00
35582;BMP180;21687;48.900;9.188;2023-01-31T08:07:12;99404.00;;;0.10
35582;BMP180;21687;48.900;9.188;2023-01-31T08:09:38;99403.00;;;0.10
35582;BMP180;21687;48.900;9.188;2023-01-31T08:12:05;99405.00;;;0.20
35582;BMP180;21687;48.900;9.188;2023-01-31T08:14:32;99416.00;;;0.30
35582;BMP180;21687;48.900;9.188;2023-01-31T08:16:59;99410.00;;;0.40
35582;BMP180;21687;48.900;9.188;2023-01-31T08:19:25;99406.00;;;0.50
35582;BMP180;21687;48.900;9.188;2023-01-31T08:21:51;99404.00;;;0.60
35582;BMP180;21687;48.900;9.188;2023-01-31T08:24:18;99407.00;;;0.70
35582;BMP180;21687;48.900;9.188;2023-01-31T08:26:44;99406.00;;;0.80
35582;BMP180;21687;48.900;9.188;2023-01-31T08:29:10;99394.00;;;1.00
35582;BMP180;21687;48.900;9.188;2023-01-31T08:31:38;99390.00;;;1.10
35582;BMP180;21687;48.900;9.188;2023-01-31T08:34:06;99359.00;;;1.20
35582;BMP180;21687;48.900;9.188;2023-01-31T08:36:33;99387.00;;;1.30
35582;BMP180;21687;48.900;9.188;2023-01-31T08:39:00;99390.00;;;1.50
35582;BMP180;21687;48.900;9.188;2023-01-31T08:41:28;99388.00;;;1.50
35582;BMP180;21687;48.900;9.188;2023-01-31T08:43:55;99393.00;;;1.70
35582;BMP180;21687;48.900;9.188;2023-01-31T08:46:28;99394.00;;;1.80
35582;BMP180;21687;48.900;9.188;2023-01-31T08:48:55;99392.00;;;1.70
35582;BMP180;21687;48.900;9.188;2023-01-31T08:51:21;99383.00;;;1.70
35582;BMP180;21687;48.900;9.188;2023-01-31T08:53:48;99387.00;;;1.70
35582;BMP180;21687;48.900;9.188;2023-01-31T08:56:15;99389.00;;;1.80
35582;BMP180;21687;48.900;9.188;2023-01-31T08:58:43;99380.00;;;1.80
35582;BMP180;21687;48.900;9.188;2023-01-31T09:01:17;99388.00;;;1.80
35582;BMP180;21687;48.900;9.188;2023-01-31T09:03:44;99394.00;;;1.90
35582;BMP180;21687;48.900;9.188;2023-01-31T09:06:17;99383.00;;;1.90
35582;BMP180;21687;48.900;9.188;2023-01-31T09:08:43;99392.00;;;2.00
35582;BMP180;21687;48.900;9.188;2023-01-31T09:11:10;99386.00;;;2.10
35582;BMP180;21687;48.900;9.188;2023-01-31T09:13:36;99383.00;;;2.20
35582;BMP180;21687;48.900;9.188;2023-01-31T09:16:08;99391.00;;;2.50
35582;BMP180;21687;48.900;9.188;2023-01-31T09:18:36;99372.00;;;2.80
35582;BMP180;21687;48.900;9.188;2023-01-31T09:21:08;99397.00;;;2.90
35582;BMP180;21687;48.900;9.188;2023-01-31T09:23:35;99391.00;;;3.00
35582;BMP180;21687;48.900;9.188;2023-01-31T09:26:02;99374.00;;;3.00
35582;BMP180;21687;48.900;9.188;2023-01-31T09:28:28;99376.00;;;3.20
35582;BMP180;21687;48.900;9.188;2023-01-31T09:31:00;99370.00;;;3.30
35582;BMP180;21687;48.900;9.188;2023-01-31T09:33:27;99374.00;;;3.50
35582;BMP180;21687;48.900;9.188;2023-01-31T09:36:01;99369.00;;;3.50
35582;BMP180;21687;48.900;9.188;2023-01-31T09:38:28;99378.00;;;3.50
35582;BMP180;21687;48.900;9.188;2023-01-31T09:40:55;99382.00;;;3.60
35582;BMP180;21687;48.900;9.188;2023-01-31T09:43:25;99381.00;;;3.50
35582;BMP180;21687;48.900;9.188;2023-01-31T09:45:56;99380.00;;;3.60
35582;BMP180;21687;48.900;9.188;2023-01-31T09:48:31;99369.00;;;3.60
35582;BMP180;21687;48.900;9.188;2023-01-31T09:51:01;99373.00;;;3.50
35582;BMP180;21687;48.900;9.188;2023-01-31T09:53:35;99374.00;;;3.70
35582;BMP180;21687;48.900;9.188;2023-01-31T09:56:41;99380.00;;;3.80
35582;BMP180;21687;48.900;9.188;2023-01-31T09:59:24;99391.00;;;3.90
35582;BMP180;21687;48.900;9.188;2023-01-31T10:07:44;99391.00;;;4.00
35582;BMP180;21687;48.900;9.188;2023-01-31T10:12:59;99389.00;;;4.20
35582;BMP180;21687;48.900;9.188;2023-01-31T10:15:36;99384.00;;;4.40
35582;BMP180;21687;48.900;9.188;2023-01-31T10:21:12;99377.00;;;4.70
35582;BMP180;21687;48.900;9.188;2023-01-31T10:26:26;99382.00;;;4.70
35582;BMP180;21687;48.900;9.188;2023-01-31T10:29:13;99373.00;;;4.80
35582;BMP180;21687;48.900;9.188;2023-01-31T10:31:51;99388.00;;;5.00
35582;BMP180;21687;48.900;9.188;2023-01-31T10:34:31;99378.00;;;5.00
35582;BMP180;21687;48.900;9.188;2023-01-31T10:40:12;99379.00;;;5.00
35582;BMP180;21687;48.900;9.188;2023-01-31T10:42:32;99376.00;;;4.90
35582;BMP180;21687;48.900;9.188;2023-01-31T10:45:14;99391.00;;;5.00
35582;BMP180;21687;48.900;9.188;2023-01-31T10:47:49;99390.00;;;4.90
35582;BMP180;21687;48.900;9.188;2023-01-31T10:58:21;99384.00;;;5.00
35582;BMP180;21687;48.900;9.188;2023-01-31T11:00:48;99381.00;;;4.90
35582;BMP180;21687;48.900;9.188;2023-01-31T11:03:15;99377.00;;;4.80
35582;BMP180;21687;48.900;9.188;2023-01-31T11:05:49;99369.00;;;4.80
35582;BMP180;21687;48.900;9.188;2023-01-31T11:08:53;99365.00;;;4.90
35582;BMP180;21687;48.900;9.188;2023-01-31T11:11:22;99364.00;;;4.80
35582;BMP180;21687;48.900;9.188;2023-01-31T11:16:24;99353.00;;;4.70
35582;BMP180;21687;48.900;9.188;2023-01-31T11:18:51;99346.00;;;4.70
35582;BMP180;21687;48.900;9.188;2023-01-31T11:21:24;99349.00;;;5.00
35582;BMP180;21687;48.900;9.188;2023-01-31T11:23:53;99352.00;;;5.20
35582;BMP180;21687;48.900;9.188;2023-01-31T11:26:30;99349.00;;;5.20
35582;BMP180;21687;48.900;9.188;2023-01-31T11:28:57;99315.00;;;5.40
35582;BMP180;21687;48.900;9.188;2023-01-31T11:31:30;99299.00;;;5.50
35582;BMP180;21687;48.900;9.188;2023-01-31T11:36:24;99296.00;;;5.70
35582;BMP180;21687;48.900;9.188;2023-01-31T11:38:52;99295.00;;;5.60
35582;BMP180;21687;48.900;9.188;2023-01-31T11:41:32;99288.00;;;5.50
35582;BMP180;21687;48.900;9.188;2023-01-31T11:44:12;99293.00;;;5.40
35582;BMP180;21687;48.900;9.188;2023-01-31T11:46:54;99297.00;;;5.40
35582;BMP180;21687;48.900;9.188;2023-01-31T11:49:23;99314.00;;;5.40
35582;BMP180;21687;48.900;9.188;2023-01-31T11:51:52;99317.00;;;5.40
35582;BMP180;21687;48.900;9.188;2023-01-31T11:54:26;99299.00;;;5.30
35582;BMP180;21687;48.900;9.188;2023-01-31T11:56:53;99309.00;;;5.40
35582;BMP180;21687;48.900;9.188;2023-01-31T11:59:27;99288.00;;;5.30
35582;BMP180;21687;48.900;9.188;2023-01-31T12:01:56;99307.00;;;5.30
35582;BMP180;21687;48.900;9.188;2023-01-31T12:04:29;99282.00;;;5.10
35582;BMP180;21687;48.900;9.188;2023-01-31T12:07:05;99288.00;;;5.20
35582;BMP180;21687;48.900;9.188;2023-01-31T12:09:50;99278.00;;;5.20
35582;BMP180;21687;48.900;9.188;2023-01-31T12:12:42;99281.00;;;5.30
35582;BMP180;21687;48.900;9.188;2023-01-31T12:15:29;99286.00;;;5.30
35582;BMP180;21687;48.900;9.188;2023-01-31T12:19:05;99251.00;;;5.30
35582;BMP180;21687;48.900;9.188;2023-01-31T12:21:51;99235.00;;;5.20
35582;BMP180;21687;48.900;9.188;2023-01-31T12:27:55;99240.00;;;5.00
35582;BMP180;21687;48.900;9.188;2023-01-31T12:34:05;99238.00;;;5.10
35582;BMP180;21687;48.900;9.188;2023-01-31T12:37:08;99234.00;;;5.10
35582;BMP180;21687;48.900;9.188;2023-01-31T12:43:02;99225.00;;;5.10
35582;BMP180;21687;48.900;9.188;2023-01-31T12:49:28;99230.00;;;5.10
35582;BMP180;21687;48.900;9.188;2023-01-31T12:52:23;99222.00;;;5.00
35582;BMP180;21687;48.900;9.188;2023-01-31T12:55:45;99213.00;;;5.00
35582;BMP180;21687;48.900;9.188;2023-01-31T13:01:37;99210.00;;;4.80
35582;BMP180;21687;48.900;9.188;2023-01-31T13:07:48;99194.00;;;5.00
35582;BMP180;21687;48.900;9.188;2023-01-31T13:11:03;99186.00;;;5.20
35582;BMP180;21687;48.900;9.188;2023-01-31T13:14:01;99184.00;;;5.00
35582;BMP180;21687;48.900;9.188;2023-01-31T13:16:55;99175.00;;;5.10
35582;BMP180;21687;48.900;9.188;2023-01-31T13:20:01;99181.00;;;5.20
35582;BMP180;21687;48.900;9.188;2023-01-31T13:22:51;99179.00;;;5.30
35582;BMP180;21687;48.900;9.188;2023-01-31T13:26:07;99182.00;;;5.20
35582;BMP180;21687;48.900;9.188;2023-01-31T13:29:24;99169.00;;;4.90
35582;BMP180;21687;48.900;9.188;2023-01-31T13:38:07;99179.00;;;4.90
35582;BMP180;21687;48.900;9.188;2023-01-31T13:40:56;99187.00;;;5.10
35582;BMP180;21687;48.900;9.188;2023-01-31T13:43:43;99186.00;;;5.00
35582;BMP180;21687;48.900;9.188;2023-01-31T13:46:35;99181.00;;;5.20
35582;BMP180;21687;48.900;9.188;2023-01-31T13:49:38;99169.00;;;5.10
35582;BMP180;21687;48.900;9.188;2023-01-31T13:52:33;99175.00;;;5.10
35582;BMP180;21687;48.900;9.188;2023-01-31T13:55:30;99162.00;;;5.20
35582;BMP180;21687;48.900;9.188;2023-01-31T13:58:34;99164.00;;;5.20
35582;BMP180;21687;48.900;9.188;2023-01-31T14:01:24;99160.00;;;5.30
35582;BMP180;21687;48.900;9.188;2023-01-31T14:12:41;99127.00;;;5.50
35582;BMP180;21687;48.900;9.188;2023-01-31T14:15:50;99124.00;;;5.50
35582;BMP180;21687;48.900;9.188;2023-01-31T14:18:44;99136.00;;;5.70
35582;BMP180;21687;48.900;9.188;2023-01-31T14:30:45;99128.00;;;5.90
35582;BMP180;21687;48.900;9.188;2023-01-31T14:33:32;99124.00;;;5.80
35582;BMP180;21687;48.900;9.188;2023-01-31T14:37:22;99116.00;;;5.80
35582;BMP180;21687;48.900;9.188;2023-01-31T14:40:38;99124.00;;;5.50
35582;BMP180;21687;48.900;9.188;2023-01-31T14:44:06;99123.00;;;5.30
35582;BMP180;21687;48.900;9.188;2023-01-31T14:53:41;99137.00;;;5.20
35582;BMP180;21687;48.900;9.188;2023-01-31T15:00:02;99140.00;;;5.00
35582;BMP180;21687;48.900;9.188;2023-01-31T15:06:28;99148.00;;;5.00
35582;BMP180;21687;48.900;9.188;2023-01-31T15:09:17;99152.00;;;5.00
35582;BMP180;21687;48.900;9.188;2023-01-31T15:12:11;99150.00;;;4.80
35582;BMP180;21687;48.900;9.188;2023-01-31T15:15:30;99158.00;;;4.80
35582;BMP180;21687;48.900;9.188;2023-01-31T15:18:19;99172.00;;;4.80
35582;BMP180;21687;48.900;9.188;2023-01-31T15:21:11;99148.00;;;4.80
35582;BMP180;21687;48.900;9.188;2023-01-31T15:24:09;99151.00;;;4.70
35582;BMP180;21687;48.900;9.188;2023-01-31T15:27:03;99155.00;;;4.70
35582;BMP180;21687;48.900;9.188;2023-01-31T15:33:14;99143.00;;;4.70
35582;BMP180;21687;48.900;9.188;2023-01-31T15:36:32;99146.00;;;4.50
35582;BMP180;21687;48.900;9.188;2023-01-31T15:39:29;99138.00;;;4.50
35582;BMP180;21687;48.900;9.188;2023-01-31T15:42:22;99141.00;;;4.50
35582;BMP180;21687;48.900;9.188;2023-01-31T15:45:27;99133.00;;;4.40
35582;BMP180;21687;48.900;9.188;2023-01-31T15:48:16;99139.00;;;4.40
35582;BMP180;21687;48.900;9.188;2023-01-31T15:51:03;99146.00;;;4.50
35582;BMP180;21687;48.900;9.188;2023-01-31T15:54:00;99140.00;;;4.40
35582;BMP180;21687;48.900;9.188;2023-01-31T15:56:47;99144.00;;;4.20
35582;BMP180;21687;48.900;9.188;2023-01-31T15:59:34;99160.00;;;4.10
35582;BMP180;21687;48.900;9.188;2023-01-31T16:02:28;99154.00;;;4.00
35582;BMP180;21687;48.900;9.188;2023-01-31T16:05:21;99159.00;;;4.00
35582;BMP180;21687;48.900;9.188;2023-01-31T16:08:35;99154.00;;;4.00
35582;BMP180;21687;48.900;9.188;2023-01-31T16:11:22;99152.00;;;4.00
35582;BMP180;21687;48.900;9.188;2023-01-31T16:14:10;99150.00;;;4.00
35582;BMP180;21687;48.900;9.188;2023-01-31T16:16:57;99143.00;;;4.10
35582;BMP180;21687;48.900;9.188;2023-01-31T16:19:48;99156.00;;;4.10
35582;BMP180;21687;48.900;9.188;2023-01-31T16:22:36;99142.00;;;4.10
35582;BMP180;21687;48.900;9.188;2023-01-31T16:25:22;99154.00;;;4.20
35582;BMP180;21687;48.900;9.188;2023-01-31T16:28:10;99156.00;;;4.20
35582;BMP180;21687;48.900;9.188;2023-01-31T16:31:06;99163.00;;;4.10
35582;BMP180;21687;48.900;9.188;2023-01-31T16:33:55;99163.00;;;4.20
35582;BMP180;21687;48.900;9.188;2023-01-31T16:37:03;99150.00;;;4.10
35582;BMP180;21687;48.900;9.188;2023-01-31T16:39:50;99155.00;;;4.20
35582;BMP180;21687;48.900;9.188;2023-01-31T16:42:44;99145.00;;;4.20
35582;BMP180;21687;48.900;9.188;2023-01-31T16:45:32;99155.00;;;4.20
35582;BMP180;21687;48.900;9.188;2023-01-31T16:48:25;99165.00;;;4.20
35582;BMP180;21687;48.900;9.188;2023-01-31T16:54:18;99172.00;;;4.30
35582;BMP180;21687;48.900;9.188;2023-01-31T16:57:07;99167.00;;;4.30
35582;BMP180;21687;48.900;9.188;2023-01-31T17:00:21;99171.00;;;4.30
35582;BMP180;21687;48.900;9.188;2023-01-31T17:03:17;99166.00;;;4.30
35582;BMP180;21687;48.900;9.188;2023-01-31T17:06:05;99174.00;;;4.30
35582;BMP180;21687;48.900;9.188;2023-01-31T17:08:52;99161.00;;;4.40
35582;BMP180;21687;48.900;9.188;2023-01-31T17:11:38;99172.00;;;4.40
35582;BMP180;21687;48.900;9.188;2023-01-31T17:14:26;99155.00;;;4.40
35582;BMP180;21687;48.900;9.188;2023-01-31T17:17:13;99170.00;;;4.40
35582;BMP180;21687;48.900;9.188;2023-01-31T17:20:00;99181.00;;;4.40